Batavia, Argentina
Current Conditions -  °F | °C
As of 9:00 PM on Sunday 25 Jan 2015 (Local Time) from SAOC Reporting Station
Few Clouds Few Clouds  
Wind Chill: 84°   Ceiling: Unl
Heat Index: 90°   Visibility: 6mi
Dew Point: 72°   Wind: 16mph
Humidity: 66%   Direction: 360°N
Pressure: 29.77"   Gusts: NA
Location:  34.78°S, 65.68°W
Report Text: SAOC 260000Z 36014KT 9999 FEW025 FEW040CB29/22 Q1008
Loading
Personal Weather Stations






























Interactive Weather Map New forecast layout! Learn more

10-Day Weather Forecast

Advertisements
Track Severe Weather on mobile